Time;durP1;ratioP1;P1;durP2;ratioP2;P2;SDS_P1;SDS_P2;PMS_P1;PMS_P2;Temp;Humidity;BMP_temperature;BMP_pressure;BME280_temperature;BME280_humidity;BME280_pressure;Samples;Min_cycle;Max_cycle;Signal;HPM_P1;HPM_P2
2023/02/23 00:08:11;;;;;;;8.60;6.30;;;;;;;-2.18;72.50;99774.46;449710;1248;145614;-65
2023/02/23 00:18:17;;;;;;;7.70;6.40;;;;;;;-2.20;72.77;99766.41;450971;1249;142958;-64
2023/02/23 00:28:23;;;;;;;8.00;5.30;;;;;;;-2.22;72.86;99764.39;450281;1249;142546;-65
2023/02/23 00:38:33;;;;;;;10.50;6.70;;;;;;;-2.31;73.10;99764.63;435173;1249;143672;-65
2023/02/23 00:48:39;;;;;;;11.20;8.60;;;;;;;-2.42;73.37;99759.92;433745;1252;143004;-64
2023/02/23 00:58:45;;;;;;;9.90;6.60;;;;;;;-2.63;74.06;99757.15;434418;1252;142578;-65
2023/02/23 01:08:55;;;;;;;10.70;7.30;;;;;;;-2.91;74.26;99755.63;434449;1251;142311;-65
2023/02/23 01:19:03;;;;;;;11.00;7.80;;;;;;;-3.09;75.09;99755.56;450366;1249;143500;-65
2023/02/23 01:29:11;;;;;;;11.60;7.10;;;;;;;-3.19;75.39;99753.04;451060;1249;143989;-65
2023/02/23 01:39:19;;;;;;;10.60;7.60;;;;;;;-3.28;75.83;99754.63;451184;1249;143940;-65
2023/02/23 01:49:29;;;;;;;11.60;7.50;;;;;;;-3.34;76.37;99739.59;450340;1249;143427;-65
2023/02/23 01:59:39;;;;;;;11.40;8.60;;;;;;;-3.42;76.53;99728.33;451100;1249;142547;-65
2023/02/23 02:10:38;;;;;;;14.90;8.80;;;;;;;-3.48;76.98;99720.30;450370;1249;143165;-65
2023/02/23 02:20:37;;;;;;;12.00;7.30;;;;;;;-3.55;76.97;99714.36;451099;1249;143426;-65
2023/02/23 02:31:24;;;;;;;12.70;8.90;;;;;;;-3.64;77.18;99703.27;450226;1249;166818;-65
2023/02/23 02:41:41;;;;;;;9.30;7.50;;;;;;;-3.69;77.26;99699.17;451070;1249;141958;-65
2023/02/23 02:51:54;;;;;;;14.60;8.20;;;;;;;-3.76;77.22;99699.02;450330;1249;143994;-65
2023/02/23 04:25:32;;;;;;;13.60;10.30;;;;;;;-4.14;79.12;99671.27;450422;1251;141717;-65
2023/02/23 04:35:39;;;;;;;12.80;9.20;;;;;;;-4.20;79.12;99669.74;451134;1249;144213;-65
2023/02/23 04:45:45;;;;;;;13.10;10.00;;;;;;;-4.22;79.58;99668.55;450488;1251;143084;-65
2023/02/23 04:55:51;;;;;;;13.50;10.10;;;;;;;-4.22;79.84;99662.56;451163;1251;145459;-66
2023/02/23 05:05:55;;;;;;;;;;;;;;;-4.25;80.13;99663.77;446548;1250;142560;-66
2023/02/23 05:16:01;;;;;;;18.70;12.00;;;;;;;-4.27;80.20;99659.67;438772;1250;128640;-65
2023/02/23 05:26:09;;;;;;;16.90;10.40;;;;;;;-4.30;80.74;99654.21;444231;1251;143543;-65
2023/02/23 05:36:17;;;;;;;19.60;12.70;;;;;;;-4.23;81.22;99653.52;450630;1251;142120;-65
2023/02/23 05:46:25;;;;;;;18.90;12.70;;;;;;;-4.14;81.16;99649.39;449819;1249;203805;-65
2023/02/23 05:56:30;;;;;;;15.60;12.40;;;;;;;-4.05;81.38;99654.49;450539;1251;143479;-65
2023/02/23 06:06:36;;;;;;;16.70;11.90;;;;;;;-3.81;81.53;99653.02;450458;1251;143272;-65
2023/02/23 06:16:43;;;;;;;18.20;11.30;;;;;;;-3.46;81.30;99651.14;450142;1250;196573;-66
2023/02/23 06:26:49;;;;;;;19.20;13.40;;;;;;;-3.04;81.10;99650.55;450483;1251;142826;-67
2023/02/23 06:36:55;;;;;;;18.10;11.90;;;;;;;-2.58;80.56;99648.78;449706;1250;142653;-66
2023/02/23 06:47:01;;;;;;;18.70;12.70;;;;;;;-2.02;79.65;99648.39;444070;1251;143286;-65
2023/02/23 06:57:07;;;;;;;16.90;11.00;;;;;;;-1.59;78.72;99657.14;434168;1253;142177;-63
2023/02/23 07:07:13;;;;;;;17.20;12.40;;;;;;;-1.09;78.05;99647.50;444379;1249;142930;-65
2023/02/23 07:17:18;;;;;;;14.90;11.60;;;;;;;-0.23;76.98;99649.85;445006;1251;142963;-66
2023/02/23 07:27:26;;;;;;;16.30;10.40;;;;;;;0.33;75.02;99650.66;449202;1249;143414;-66
2023/02/23 07:44:39;;;;;;;15.70;12.90;;;;;;;1.47;73.26;99643.20;435722;1291;600436;-66
2023/02/23 07:54:45;;;;;;;16.50;12.80;;;;;;;1.88;71.58;99631.45;446156;1266;161407;-66
2023/02/23 08:04:52;;;;;;;13.00;11.30;;;;;;;2.32;71.27;99618.98;447040;1266;142210;-67
2023/02/23 08:14:58;;;;;;;14.70;12.40;;;;;;;2.71;70.00;99613.98;446912;1265;141787;-67
2023/02/23 08:25:04;;;;;;;15.60;11.80;;;;;;;3.38;68.93;99604.07;446160;1266;143415;-65
2023/02/23 08:35:11;;;;;;;12.00;10.30;;;;;;;4.77;67.88;99597.38;446568;1266;142014;-66
2023/02/23 08:45:18;;;;;;;12.90;11.20;;;;;;;6.92;64.46;99591.27;446950;1265;140474;-66
2023/02/23 08:55:24;;;;;;;10.80;9.30;;;;;;;7.89;61.11;99592.18;446112;1266;141121;-67
2023/02/23 09:05:29;;;;;;;11.30;9.00;;;;;;;9.74;59.48;99577.25;446800;1265;140448;-67
2023/02/23 09:15:35;;;;;;;13.00;11.20;;;;;;;11.07;56.28;99569.19;447933;1261;141362;-68
2023/02/23 09:25:43;;;;;;;12.40;10.30;;;;;;;11.63;55.09;99558.96;447334;1262;212845;-68
2023/02/23 09:35:49;;;;;;;12.20;10.10;;;;;;;11.00;53.56;99548.39;447816;1262;142156;-68
2023/02/23 09:46:02;;;;;;;11.70;10.60;;;;;;;8.03;54.72;99546.41;447061;1261;141614;-67
2023/02/23 09:56:13;;;;;;;14.90;10.80;;;;;;;6.47;57.24;99540.60;444056;1265;141774;-67
2023/02/23 10:06:20;;;;;;;15.70;11.40;;;;;;;5.73;58.87;99540.48;440369;1263;142533;-68
2023/02/23 10:16:36;;;;;;;14.30;10.40;;;;;;;5.43;59.79;99523.89;447130;1260;143999;-68
2023/02/23 10:26:47;;;;;;;12.40;9.10;;;;;;;5.12;60.55;99516.55;447869;1260;141257;-69
2023/02/23 10:36:58;;;;;;;14.70;9.90;;;;;;;4.92;61.08;99507.84;447043;1263;142867;-68
2023/02/23 10:47:11;;;;;;;14.90;9.20;;;;;;;4.94;61.95;99494.04;447769;1261;141277;-67
2023/02/23 10:57:25;;;;;;;12.60;9.70;;;;;;;5.02;62.11;99475.65;447885;1261;140865;-69
2023/02/23 11:07:32;;;;;;;12.80;10.30;;;;;;;5.05;62.25;99456.98;447261;1260;140713;-67
2023/02/23 11:17:39;;;;;;;15.80;9.30;;;;;;;4.95;62.46;99438.83;447931;1260;144928;-68
2023/02/23 11:27:50;;;;;;;18.00;10.70;;;;;;;4.96;62.85;99419.91;447095;1262;145309;-68
2023/02/23 11:37:56;;;;;;;12.50;9.80;;;;;;;4.94;62.90;99406.94;447987;1260;141801;-69
2023/02/23 11:48:04;;;;;;;16.20;9.60;;;;;;;5.06;63.10;99389.77;434107;1262;140491;-69
2023/02/23 11:58:23;;;;;;;15.00;10.00;;;;;;;5.45;63.49;99374.31;447091;1260;140914;-68
2023/02/23 12:08:39;;;;;;;14.70;9.00;;;;;;;5.96;63.24;99361.85;437828;1261;141024;-68
2023/02/23 12:18:53;;;;;;;13.60;8.30;;;;;;;6.27;62.52;99349.45;431087;1262;141005;-68
2023/02/23 12:29:05;;;;;;;12.70;8.80;;;;;;;6.47;62.34;99340.80;447952;1260;140469;-68
2023/02/23 12:39:21;;;;;;;12.10;8.90;;;;;;;6.72;62.01;99318.28;447976;1260;140403;-68
2023/02/23 12:49:36;;;;;;;12.10;8.30;;;;;;;6.68;61.69;99314.86;447140;1260;143973;-69
2023/02/23 13:00:23;;;;;;;12.40;8.00;;;;;;;6.78;61.76;99298.69;447910;1260;141163;-69
2023/02/23 13:10:32;;;;;;;;;;;;;;;6.85;61.71;99291.72;443344;1262;140527;-68
2023/02/23 13:20:43;;;;;;;11.90;9.30;;;;;;;6.94;61.61;99285.50;448122;1260;130101;-68
2023/02/23 13:30:49;;;;;;;17.20;10.20;;;;;;;6.98;61.82;99272.02;447177;1260;143456;-68
2023/02/23 13:41:05;;;;;;;14.50;9.60;;;;;;;6.89;61.90;99255.80;435792;1262;141184;-68
2023/02/23 13:51:20;;;;;;;13.20;9.50;;;;;;;6.71;62.25;99236.60;447897;1262;140670;-69
2023/02/23 14:01:29;;;;;;;10.10;7.90;;;;;;;6.51;62.46;99228.29;447170;1260;140904;-67
2023/02/23 14:11:46;;;;;;;12.20;8.50;;;;;;;6.44;62.69;99217.98;447914;1260;141061;-67
2023/02/23 14:21:58;;;;;;;18.40;11.00;;;;;;;6.41;63.12;99210.16;447179;1260;140957;-69
2023/02/23 14:32:19;;;;;;;16.90;10.00;;;;;;;6.37;63.26;99206.73;440259;1261;140927;-68
2023/02/23 14:42:29;;;;;;;12.90;9.00;;;;;;;6.21;63.54;99203.91;447977;1260;140816;-68
2023/02/23 14:52:40;;;;;;;19.50;10.40;;;;;;;6.03;64.03;99200.11;447177;1262;141477;-68
2023/02/23 15:02:58;;;;;;;13.20;10.50;;;;;;;5.95;64.34;99200.85;447998;1260;142204;-64
2023/02/23 15:13:11;;;;;;;17.20;11.80;;;;;;;5.82;64.65;99187.79;447292;1259;141370;-64
2023/02/23 15:23:20;;;;;;;16.50;10.10;;;;;;;5.63;65.17;99177.43;447899;1260;141250;-65
2023/02/23 15:33:29;;;;;;;17.00;11.80;;;;;;;5.43;65.67;99167.14;447931;1260;141139;-64
2023/02/23 15:43:35;;;;;;;17.70;11.20;;;;;;;5.24;66.24;99165.12;447163;1260;141140;-63
2023/02/23 15:53:42;;;;;;;18.80;12.60;;;;;;;4.99;66.66;99156.24;444821;1260;141298;-64
2023/02/23 16:03:58;;;;;;;18.40;11.90;;;;;;;4.72;67.30;99147.11;447164;1261;143349;-63
2023/02/23 16:14:14;;;;;;;21.10;13.60;;;;;;;4.44;67.97;99133.32;447805;1262;144879;-64
2023/02/23 16:24:22;;;;;;;19.60;13.40;;;;;;;4.21;68.60;99133.30;447916;1261;142328;-63
2023/02/23 16:34:33;;;;;;;20.20;15.60;;;;;;;4.00;69.46;99134.04;447128;1260;142268;-63
2023/02/23 16:44:40;;;;;;;25.90;16.70;;;;;;;3.85;70.02;99130.89;447820;1260;141668;-64
2023/02/23 16:54:50;;;;;;;24.30;17.00;;;;;;;3.73;70.62;99129.65;447143;1260;142497;-64
2023/02/23 17:05:00;;;;;;;22.30;16.30;;;;;;;3.66;71.13;99120.97;447929;1262;143158;-63
2023/02/23 17:15:11;;;;;;;26.70;18.80;;;;;;;3.58;71.65;99112.11;447932;1261;142503;-64
2023/02/23 17:25:17;;;;;;;26.50;18.10;;;;;;;3.48;72.18;99103.05;447071;1260;142104;-64
2023/02/23 17:35:23;;;;;;;34.10;21.50;;;;;;;3.34;72.67;99096.89;447774;1260;141970;-63
2023/02/23 17:45:30;;;;;;;34.40;24.60;;;;;;;3.16;73.11;99091.02;447887;1260;143434;-63
2023/02/23 17:55:36;;;;;;;38.50;22.90;;;;;;;3.01;73.91;99079.89;446928;1260;143798;-64
2023/02/23 18:05:42;;;;;;;39.90;23.10;;;;;;;2.90;74.63;99067.02;436034;1260;142193;-63
2023/02/23 18:15:52;;;;;;;30.80;20.90;;;;;;;2.82;75.03;99052.98;442435;1261;199632;-64
2023/02/23 18:26:06;;;;;;;32.10;21.40;;;;;;;2.78;75.74;99041.40;442160;1260;142283;-64
2023/02/23 18:36:21;;;;;;;29.00;19.40;;;;;;;2.78;76.02;99034.33;448192;1258;142598;-63
2023/02/23 18:46:27;;;;;;;34.30;22.80;;;;;;;2.81;76.25;99026.59;447499;1258;145215;-63
2023/02/23 18:56:33;;;;;;;30.40;20.00;;;;;;;2.85;76.62;99022.46;448159;1258;141428;-64
2023/02/23 19:06:41;;;;;;;32.60;23.60;;;;;;;2.83;76.92;99016.33;447611;1258;145126;-65
2023/02/23 19:16:47;;;;;;;32.50;22.80;;;;;;;2.75;77.25;99009.36;448022;1258;142601;-64
2023/02/23 19:26:53;;;;;;;36.90;24.10;;;;;;;2.68;77.60;98998.09;444806;1257;144596;-64
2023/02/23 19:36:59;;;;;;;37.50;22.80;;;;;;;2.62;78.19;98981.55;431181;1259;183092;-64
2023/02/23 19:47:04;;;;;;;34.80;23.40;;;;;;;2.49;78.68;98974.14;433972;1259;141814;-64
2023/02/23 19:57:10;;;;;;;35.30;24.00;;;;;;;2.31;78.98;98963.28;433699;1260;152575;-64
2023/02/23 20:07:16;;;;;;;36.10;23.80;;;;;;;2.15;79.51;98953.71;432918;1258;142164;-64
2023/02/23 20:17:22;;;;;;;36.60;25.40;;;;;;;2.03;80.01;98943.48;433479;1259;142301;-64
2023/02/23 20:27:28;;;;;;;36.10;23.70;;;;;;;1.90;80.69;98934.34;435726;1260;142255;-63
2023/02/23 20:37:40;;;;;;;38.30;24.90;;;;;;;1.80;81.14;98923.63;437338;1258;140829;-63
2023/02/23 20:47:52;;;;;;;39.20;27.30;;;;;;;1.76;81.65;98908.98;439283;1256;143607;-64
2023/02/23 20:58:01;;;;;;;37.30;25.90;;;;;;;1.71;82.20;98895.52;432237;1256;140943;-64
2023/02/23 21:08:08;;;;;;;44.00;26.40;;;;;;;1.67;82.51;98886.20;433074;1257;141963;-64
2023/02/23 21:18:14;;;;;;;41.40;27.20;;;;;;;1.65;82.94;98881.77;432493;1260;140838;-65
2023/02/23 21:28:20;;;;;;;48.00;27.40;;;;;;;1.70;83.61;98870.90;431771;1260;140880;-64
2023/02/23 21:38:26;;;;;;;52.70;30.60;;;;;;;1.80;83.62;98854.27;437005;1261;141207;-64
2023/02/23 21:48:32;;;;;;;62.80;35.10;;;;;;;2.01;83.31;98844.98;432289;1260;143133;-66
2023/02/23 21:58:39;;;;;;;54.20;36.40;;;;;;;2.23;83.62;98831.82;435170;1257;208334;-64
2023/02/23 22:08:46;;;;;;;58.40;37.10;;;;;;;2.38;83.78;98819.42;432331;1259;142372;-63
2023/02/23 22:18:52;;;;;;;57.40;36.90;;;;;;;2.53;83.69;98810.52;435836;1256;143683;-63
2023/02/23 22:28:58;;;;;;;47.90;31.50;;;;;;;2.59;83.84;98799.01;438632;1258;197886;-64
2023/02/23 22:39:08;;;;;;;48.70;30.10;;;;;;;2.65;84.06;98790.11;432608;1257;140751;-63
2023/02/23 22:49:15;;;;;;;51.00;32.60;;;;;;;2.79;84.30;98782.43;448330;1256;142925;-64
2023/02/23 22:59:20;;;;;;;50.30;31.30;;;;;;;2.93;84.87;98772.10;448902;1258;141281;-64
2023/02/23 23:09:26;;;;;;;49.10;32.20;;;;;;;3.15;85.22;98759.55;448850;1256;186193;-64
2023/02/23 23:19:37;;;;;;;42.90;29.00;;;;;;;3.34;85.63;98742.39;448116;1256;200652;-63
2023/02/23 23:29:45;;;;;;;47.70;31.90;;;;;;;3.49;85.68;98732.14;449044;1256;141662;-64
2023/02/23 23:39:58;;;;;;;46.30;31.40;;;;;;;3.53;85.81;98716.73;448145;1258;142093;-65
2023/02/23 23:50:09;;;;;;;42.90;28.90;;;;;;;3.67;86.69;98701.35;448960;1256;142214;-63
